Time;durP1;ratioP1;P1;durP2;ratioP2;P2;SDS_P1;SDS_P2;PMS_P1;PMS_P2;Temp;Humidity;BMP_temperature;BMP_pressure;BME280_temperature;BME280_humidity;BME280_pressure;Samples;Min_cycle;Max_cycle;Signal;HPM_P1;HPM_P2
2022/08/30 00:02:34;;;;;;;;;;;20.30;66.30;;;;;;5061011;28;19919;-65
2022/08/30 00:05:00;;;;;;;;;;;20.30;66.30;;;;;;5065155;28;19912;-65
2022/08/30 00:07:26;;;;;;;;;;;20.30;66.50;;;;;;5065347;28;19951;-65
2022/08/30 00:09:51;;;;;;;;;;;20.30;66.30;;;;;;5065188;28;20475;-65
2022/08/30 00:12:19;;;;;;;;;;;20.30;66.30;;;;;;5064995;28;19917;-65
2022/08/30 00:14:45;;;;;;;;;;;20.30;66.60;;;;;;5065356;28;19961;-65
2022/08/30 00:17:11;;;;;;;;;;;20.20;66.50;;;;;;5064050;28;20001;-65
2022/08/30 00:19:37;;;;;;;;;;;20.20;66.70;;;;;;5068761;28;19908;-65
2022/08/30 00:22:03;;;;;;;;;;;20.20;66.60;;;;;;5067961;28;19908;-65
2022/08/30 00:24:28;;;;;;;;;;;20.20;66.60;;;;;;5050731;28;19962;-65
2022/08/30 00:26:54;;;;;;;;;;;20.20;66.70;;;;;;5068523;28;19963;-65
2022/08/30 00:29:19;;;;;;;;;;;20.20;67.00;;;;;;5068855;28;20388;-65
2022/08/30 00:31:45;;;;;;;;;;;20.10;66.90;;;;;;5067878;28;19919;-65
2022/08/30 00:34:10;;;;;;;;;;;20.10;66.80;;;;;;5068173;28;19927;-65
2022/08/30 00:36:36;;;;;;;;;;;20.10;66.90;;;;;;5068801;28;19928;-65
2022/08/30 00:39:02;;;;;;;;;;;20.10;66.90;;;;;;5068334;28;19912;-64
2022/08/30 00:41:28;;;;;;;;;;;20.10;67.10;;;;;;5068652;28;20040;-65
2022/08/30 00:43:53;;;;;;;;;;;20.10;67.10;;;;;;5067693;28;19927;-65
2022/08/30 00:46:19;;;;;;;;;;;20.10;67.10;;;;;;5068527;28;19916;-65
2022/08/30 00:48:46;;;;;;;;;;;20.10;67.10;;;;;;5067790;28;20394;-65
2022/08/30 00:51:13;;;;;;;;;;;20.00;67.30;;;;;;5068251;28;19965;-65
2022/08/30 00:53:40;;;;;;;;;;;20.10;67.40;;;;;;5050262;28;19958;-65
2022/08/30 00:56:06;;;;;;;;;;;20.00;67.50;;;;;;5067747;28;20305;-64
2022/08/30 00:58:37;;;;;;;;;;;20.00;67.60;;;;;;5067881;28;19919;-65
2022/08/30 01:01:03;;;;;;;;;;;20.00;67.60;;;;;;5067390;28;19953;-65
2022/08/30 01:03:29;;;;;;;;;;;20.00;67.60;;;;;;5062747;28;20022;-64
2022/08/30 01:05:55;;;;;;;;;;;20.00;67.70;;;;;;5067817;28;19908;-65
2022/08/30 01:08:23;;;;;;;;;;;20.00;67.90;;;;;;5066594;28;19912;-65
2022/08/30 01:10:50;;;;;;;;;;;19.90;67.70;;;;;;5067423;28;19960;-65
2022/08/30 01:13:16;;;;;;;;;;;19.90;67.60;;;;;;5067506;28;19935;-64
2022/08/30 01:15:43;;;;;;;;;;;19.90;67.80;;;;;;5067763;28;19912;-65
2022/08/30 01:18:10;;;;;;;;;;;19.90;68.00;;;;;;5067942;28;19955;-65
2022/08/30 01:20:38;;;;;;;;;;;19.90;68.00;;;;;;5067093;28;20454;-65
2022/08/30 01:23:03;;;;;;;;;;;19.90;68.10;;;;;;5067763;28;19973;-65
2022/08/30 01:25:29;;;;;;;;;;;19.90;68.10;;;;;;5067538;28;19924;-65
2022/08/30 01:28:00;;;;;;;;;;;19.90;68.00;;;;;;5049601;28;19909;-65
2022/08/30 01:30:26;;;;;;;;;;;19.80;68.10;;;;;;5065670;28;19927;-65
2022/08/30 01:32:55;;;;;;;;;;;19.90;68.40;;;;;;5066755;28;20518;-65
2022/08/30 01:35:21;;;;;;;;;;;19.80;68.40;;;;;;5067369;28;19959;-65
2022/08/30 01:37:47;;;;;;;;;;;19.90;68.40;;;;;;5066780;28;19920;-65
2022/08/30 01:40:13;;;;;;;;;;;19.80;68.50;;;;;;5067071;28;19916;-64
2022/08/30 01:42:39;;;;;;;;;;;19.80;68.50;;;;;;5066983;28;20019;-65
2022/08/30 01:45:06;;;;;;;;;;;19.80;68.50;;;;;;5065645;28;20329;-65
2022/08/30 01:47:31;;;;;;;;;;;19.80;68.60;;;;;;5067100;28;19912;-65
2022/08/30 01:49:57;;;;;;;;;;;19.80;68.60;;;;;;5066455;28;20560;-65
2022/08/30 01:52:23;;;;;;;;;;;19.80;68.70;;;;;;5066554;28;19982;-65
2022/08/30 01:54:49;;;;;;;;;;;19.70;68.60;;;;;;5066358;28;20540;-65
2022/08/30 01:57:15;;;;;;;;;;;19.70;68.70;;;;;;5066730;28;20277;-65
2022/08/30 01:59:46;;;;;;;;;;;19.70;68.80;;;;;;5066676;28;19948;-65
2022/08/30 02:02:12;;;;;;;;;;;19.70;68.90;;;;;;5062670;28;19970;-65
2022/08/30 02:04:37;;;;;;;;;;;19.70;69.00;;;;;;5065562;28;19908;-65
2022/08/30 02:07:03;;;;;;;;;;;19.70;69.00;;;;;;5065707;28;19966;-64
2022/08/30 02:09:29;;;;;;;;;;;19.70;69.00;;;;;;5066798;28;20318;-65
2022/08/30 02:11:54;;;;;;;;;;;19.70;69.00;;;;;;5066216;28;19999;-65
2022/08/30 02:14:20;;;;;;;;;;;19.70;69.20;;;;;;5066714;28;19919;-65
2022/08/30 02:16:47;;;;;;;;;;;19.70;69.20;;;;;;5048792;28;19924;-65
2022/08/30 02:19:12;;;;;;;;;;;19.60;69.20;;;;;;5066459;28;19910;-65
2022/08/30 02:21:38;;;;;;;;;;;19.60;69.20;;;;;;5066106;28;19916;-65
2022/08/30 02:24:04;;;;;;;;;;;19.60;69.30;;;;;;5047806;28;20020;-65
2022/08/30 02:26:30;;;;;;;;;;;19.60;69.40;;;;;;5047873;28;20027;-65
2022/08/30 02:28:56;;;;;;;;;;;19.60;69.50;;;;;;5065781;28;20015;-65
2022/08/30 02:31:21;;;;;;;;;;;19.60;69.50;;;;;;5066174;28;19913;-65
2022/08/30 02:33:49;;;;;;;;;;;19.60;69.40;;;;;;5065498;28;19923;-64
2022/08/30 02:36:14;;;;;;;;;;;19.60;69.60;;;;;;5065235;28;19991;-65
2022/08/30 02:38:40;;;;;;;;;;;19.60;69.60;;;;;;5065951;28;20003;-65
2022/08/30 02:41:05;;;;;;;;;;;19.50;69.60;;;;;;5064833;28;19920;-64
2022/08/30 02:43:31;;;;;;;;;;;19.50;69.70;;;;;;5065122;28;19921;-65
2022/08/30 02:45:57;;;;;;;;;;;19.50;69.80;;;;;;5066287;28;19919;-64
2022/08/30 02:48:22;;;;;;;;;;;19.50;69.80;;;;;;5065789;28;19912;-65
2022/08/30 02:50:49;;;;;;;;;;;19.50;69.80;;;;;;5065801;28;19912;-65
2022/08/30 02:53:15;;;;;;;;;;;19.50;69.80;;;;;;5066053;28;20066;-65
2022/08/30 02:55:40;;;;;;;;;;;19.50;69.90;;;;;;5066154;28;19966;-65
2022/08/30 02:58:06;;;;;;;;;;;19.50;70.00;;;;;;5065532;28;19967;-65
2022/08/30 03:00:33;;;;;;;;;;;19.50;70.70;;;;;;5065389;28;19919;-65
2022/08/30 03:02:59;;;;;;;;;;;19.50;70.00;;;;;;5059819;28;20417;-65
2022/08/30 03:05:25;;;;;;;;;;;19.50;70.10;;;;;;5066205;28;20380;-65
2022/08/30 03:07:50;;;;;;;;;;;19.40;70.00;;;;;;5065781;28;19909;-64
2022/08/30 03:10:16;;;;;;;;;;;19.40;70.20;;;;;;5065157;28;19916;-64
2022/08/30 03:12:42;;;;;;;;;;;19.40;70.20;;;;;;5065318;28;19916;-65
2022/08/30 03:15:12;;;;;;;;;;;19.40;70.30;;;;;;5065381;28;19950;-66
2022/08/30 03:17:38;;;;;;;;;;;19.40;70.30;;;;;;5065261;28;20557;-65
2022/08/30 03:20:04;;;;;;;;;;;19.40;70.30;;;;;;5065352;28;19913;-66
2022/08/30 03:22:30;;;;;;;;;;;19.40;70.30;;;;;;5062167;28;19920;-66
2022/08/30 03:25:00;;;;;;;;;;;19.40;70.50;;;;;;5065182;28;19912;-66
2022/08/30 03:27:26;;;;;;;;;;;19.30;70.50;;;;;;5064898;28;19913;-65
2022/08/30 03:29:51;;;;;;;;;;;19.30;70.50;;;;;;5067109;28;19969;-68
2022/08/30 03:32:17;;;;;;;;;;;19.30;70.70;;;;;;5064782;28;20627;-65
2022/08/30 03:34:43;;;;;;;;;;;19.30;70.60;;;;;;5065341;28;19917;-64
2022/08/30 03:37:08;;;;;;;;;;;19.30;70.60;;;;;;5065691;28;19912;-64
2022/08/30 03:39:34;;;;;;;;;;;19.30;70.70;;;;;;5065287;28;19919;-65
2022/08/30 03:41:59;;;;;;;;;;;19.20;70.50;;;;;;5059794;28;19909;-64
2022/08/30 03:44:25;;;;;;;;;;;19.20;70.60;;;;;;5065279;28;19920;-65
2022/08/30 03:46:52;;;;;;;;;;;19.20;70.60;;;;;;5061083;28;20300;-65
2022/08/30 03:49:18;;;;;;;;;;;19.20;70.80;;;;;;5065560;28;20001;-64
2022/08/30 03:51:44;;;;;;;;;;;19.20;70.90;;;;;;5065061;28;19935;-65
2022/08/30 03:54:09;;;;;;;;;;;19.10;70.90;;;;;;5068399;28;19917;-64
2022/08/30 03:56:35;;;;;;;;;;;19.10;70.90;;;;;;5069174;28;20279;-64
2022/08/30 03:59:01;;;;;;;;;;;19.10;70.80;;;;;;5044423;28;19913;-64
2022/08/30 04:01:26;;;;;;;;;;;19.10;71.00;;;;;;5068525;28;20049;-65
2022/08/30 04:03:52;;;;;;;;;;;19.10;71.10;;;;;;5064944;28;19927;-65
2022/08/30 04:06:17;;;;;;;;;;;19.00;71.10;;;;;;5068915;28;20361;-65
2022/08/30 04:08:44;;;;;;;;;;;19.00;71.10;;;;;;5069156;28;19917;-64
2022/08/30 04:11:10;;;;;;;;;;;19.00;71.10;;;;;;5068736;28;19979;-64
2022/08/30 04:13:36;;;;;;;;;;;19.00;71.20;;;;;;5068859;28;19927;-65
2022/08/30 04:16:02;;;;;;;;;;;19.00;71.20;;;;;;5068782;28;19908;-65
2022/08/30 04:18:27;;;;;;;;;;;19.00;71.30;;;;;;5068877;28;19951;-64
2022/08/30 04:20:53;;;;;;;;;;;19.00;71.40;;;;;;5068616;28;19966;-65
2022/08/30 04:23:18;;;;;;;;;;;18.90;71.30;;;;;;5068735;28;19912;-65
2022/08/30 04:25:44;;;;;;;;;;;18.90;71.40;;;;;;5068842;28;19981;-64
2022/08/30 04:28:10;;;;;;;;;;;18.90;71.50;;;;;;5068969;28;19912;-65
2022/08/30 04:30:39;;;;;;;;;;;18.90;71.60;;;;;;5068365;28;19920;-64
2022/08/30 04:33:05;;;;;;;;;;;18.90;71.50;;;;;;5068608;28;20468;-64
2022/08/30 04:35:30;;;;;;;;;;;18.80;71.50;;;;;;5065362;28;19926;-64
2022/08/30 04:37:56;;;;;;;;;;;18.90;71.60;;;;;;5066601;28;20396;-64
2022/08/30 04:40:21;;;;;;;;;;;18.80;71.60;;;;;;5068518;28;19920;-64
2022/08/30 04:42:47;;;;;;;;;;;18.80;71.60;;;;;;5068000;28;19913;-64
2022/08/30 04:45:13;;;;;;;;;;;18.80;71.70;;;;;;5068142;28;19916;-64
2022/08/30 04:47:39;;;;;;;;;;;18.80;71.80;;;;;;5068275;28;19958;-64
2022/08/30 04:50:06;;;;;;;;;;;18.80;71.80;;;;;;5067938;28;19916;-64
2022/08/30 04:52:31;;;;;;;;;;;18.80;71.90;;;;;;5067519;28;20285;-64
2022/08/30 04:54:57;;;;;;;;;;;18.70;71.80;;;;;;5068037;28;19912;-64
2022/08/30 04:57:23;;;;;;;;;;;18.80;72.00;;;;;;5049992;28;20074;-64
2022/08/30 04:59:49;;;;;;;;;;;18.70;71.90;;;;;;5068162;28;19913;-64
2022/08/30 05:02:14;;;;;;;;;;;18.70;71.90;;;;;;5063325;28;20306;-65
2022/08/30 05:05:38;;;;;;;;;;;18.70;71.90;;;;;;5066459;28;19919;-64
2022/08/30 05:07:25;;;;;;;;;;;18.70;72.00;;;;;;5068035;28;19975;-64
2022/08/30 05:09:51;;;;;;;;;;;18.70;72.10;;;;;;5068137;28;20466;-64
2022/08/30 05:12:16;;;;;;;;;;;18.70;72.00;;;;;;5067967;28;19909;-64
2022/08/30 05:14:42;;;;;;;;;;;18.70;72.10;;;;;;5068176;28;19909;-64
2022/08/30 05:17:07;;;;;;;;;;;18.70;72.10;;;;;;5067970;28;19916;-64
2022/08/30 05:19:33;;;;;;;;;;;18.70;72.20;;;;;;5067826;28;20019;-65
2022/08/30 05:21:59;;;;;;;;;;;18.70;72.90;;;;;;5067490;28;20365;-65
2022/08/30 05:24:24;;;;;;;;;;;18.70;72.20;;;;;;5067494;28;19923;-64
2022/08/30 05:26:50;;;;;;;;;;;18.70;72.20;;;;;;5067643;28;19943;-64
2022/08/30 05:29:15;;;;;;;;;;;18.60;72.20;;;;;;5067240;28;20481;-64
2022/08/30 05:31:42;;;;;;;;;;;18.70;72.20;;;;;;5067063;28;19963;-64
2022/08/30 05:34:07;;;;;;;;;;;18.70;72.20;;;;;;5067388;28;20361;-64
2022/08/30 05:36:34;;;;;;;;;;;18.70;72.20;;;;;;5067436;28;19954;-65
2022/08/30 05:39:00;;;;;;;;;;;18.70;72.30;;;;;;5067162;28;20002;-64
2022/08/30 05:41:25;;;;;;;;;;;18.60;72.20;;;;;;5066828;28;20019;-64
2022/08/30 05:43:52;;;;;;;;;;;18.70;72.20;;;;;;5067274;28;19920;-64
2022/08/30 05:46:18;;;;;;;;;;;18.70;72.30;;;;;;5067320;28;20015;-64
2022/08/30 05:48:44;;;;;;;;;;;18.70;72.20;;;;;;5067570;28;20687;-64
2022/08/30 05:51:16;;;;;;;;;;;18.70;72.30;;;;;;5048876;28;20380;-64
2022/08/30 05:53:41;;;;;;;;;;;18.70;72.30;;;;;;5067044;28;20514;-64
2022/08/30 05:56:08;;;;;;;;;;;18.70;72.30;;;;;;5067027;28;19923;-64
2022/08/30 05:58:34;;;;;;;;;;;18.70;72.30;;;;;;5066934;28;19951;-64
2022/08/30 06:01:00;;;;;;;;;;;18.70;72.30;;;;;;5066976;28;20310;-64
2022/08/30 06:03:26;;;;;;;;;;;18.70;72.30;;;;;;5062945;28;19928;-64
2022/08/30 06:05:51;;;;;;;;;;;18.80;72.40;;;;;;5066965;28;19912;-64
2022/08/30 06:08:17;;;;;;;;;;;18.70;72.30;;;;;;5066770;28;19924;-64
2022/08/30 06:10:42;;;;;;;;;;;18.80;72.40;;;;;;5066442;28;20341;-64
2022/08/30 06:13:08;;;;;;;;;;;18.80;72.30;;;;;;5066684;28;19916;-65
2022/08/30 06:15:33;;;;;;;;;;;18.80;73.10;;;;;;5066432;28;20319;-64
2022/08/30 06:17:59;;;;;;;;;;;18.80;72.30;;;;;;5066547;28;19963;-64
2022/08/30 06:20:25;;;;;;;;;;;18.80;72.30;;;;;;5066220;28;20003;-64
2022/08/30 06:22:50;;;;;;;;;;;18.80;72.20;;;;;;5066274;28;19920;-64
2022/08/30 06:25:16;;;;;;;;;;;18.80;72.10;;;;;;5066257;28;19916;-64
2022/08/30 06:27:41;;;;;;;;;;;18.90;72.20;;;;;;5066294;28;20004;-65
2022/08/30 06:30:09;;;;;;;;;;;18.90;72.40;;;;;;5066011;28;19922;-65
2022/08/30 06:32:35;;;;;;;;;;;18.80;72.20;;;;;;5065972;28;20027;-64
2022/08/30 06:35:01;;;;;;;;;;;18.90;72.40;;;;;;5066431;28;20456;-64
2022/08/30 06:37:26;;;;;;;;;;;18.80;72.30;;;;;;5048239;28;19914;-65
2022/08/30 06:39:52;;;;;;;;;;;18.90;72.50;;;;;;5066339;28;19930;-64
2022/08/30 06:42:17;;;;;;;;;;;18.90;72.50;;;;;;5066390;28;20012;-64
2022/08/30 06:44:44;;;;;;;;;;;18.90;72.60;;;;;;5066130;28;19999;-64
2022/08/30 06:47:10;;;;;;;;;;;18.80;72.40;;;;;;5065760;28;20567;-64
2022/08/30 06:49:35;;;;;;;;;;;18.90;72.40;;;;;;5066130;28;20007;-64
2022/08/30 06:52:01;;;;;;;;;;;18.90;72.50;;;;;;5065799;28;19947;-64
2022/08/30 06:54:27;;;;;;;;;;;18.90;72.50;;;;;;5066514;28;20000;-65
2022/08/30 06:56:52;;;;;;;;;;;18.90;72.50;;;;;;5064373;28;19913;-64
2022/08/30 06:59:18;;;;;;;;;;;18.90;72.50;;;;;;5066184;28;19995;-65
2022/08/30 07:01:43;;;;;;;;;;;18.90;72.50;;;;;;5065359;28;19924;-64
2022/08/30 07:04:09;;;;;;;;;;;18.90;72.40;;;;;;5044376;28;19919;-64
2022/08/30 07:06:34;;;;;;;;;;;18.90;72.40;;;;;;5065973;28;19924;-64
2022/08/30 07:09:00;;;;;;;;;;;18.90;72.50;;;;;;5065951;28;20053;-64
2022/08/30 07:11:26;;;;;;;;;;;18.90;72.50;;;;;;5065454;28;20455;-65
2022/08/30 07:13:51;;;;;;;;;;;18.90;72.50;;;;;;5066008;28;19913;-64
2022/08/30 07:16:17;;;;;;;;;;;18.90;72.50;;;;;;5065553;28;20660;-64
2022/08/30 07:18:53;;;;;;;;;;;18.90;72.50;;;;;;5065896;28;20013;-64
2022/08/30 07:21:21;;;;;;;;;;;19.00;72.40;;;;;;5065608;28;19991;-64
2022/08/30 07:23:50;;;;;;;;;;;19.00;72.50;;;;;;5065799;28;19912;-64
2022/08/30 07:26:17;;;;;;;;;;;19.00;72.50;;;;;;5065849;28;20034;-64
2022/08/30 07:28:44;;;;;;;;;;;19.00;72.50;;;;;;5065212;28;20362;-65
2022/08/30 07:31:10;;;;;;;;;;;19.10;72.50;;;;;;5065860;28;19947;-64
2022/08/30 07:33:36;;;;;;;;;;;19.00;72.40;;;;;;5065369;28;19931;-65
2022/08/30 07:36:03;;;;;;;;;;;19.10;73.00;;;;;;5065708;28;19912;-65
2022/08/30 07:38:29;;;;;;;;;;;19.10;72.40;;;;;;5065570;28;20385;-64
2022/08/30 07:40:57;;;;;;;;;;;19.10;72.20;;;;;;5065258;28;19914;-64
2022/08/30 07:43:23;;;;;;;;;;;19.10;72.30;;;;;;5065717;28;20003;-64
2022/08/30 07:45:49;;;;;;;;;;;19.10;72.20;;;;;;5065487;28;20011;-64
2022/08/30 07:48:14;;;;;;;;;;;19.20;72.20;;;;;;5064015;28;19912;-65
2022/08/30 07:50:44;;;;;;;;;;;19.20;72.10;;;;;;5064838;28;19917;-65
2022/08/30 07:53:09;;;;;;;;;;;19.20;72.10;;;;;;5065221;28;19916;-65
2022/08/30 07:55:35;;;;;;;;;;;19.20;72.60;;;;;;5065138;28;19966;-64
2022/08/30 07:58:00;;;;;;;;;;;19.20;72.00;;;;;;5065328;28;19912;-65
2022/08/30 08:00:26;;;;;;;;;;;19.30;72.00;;;;;;5065032;28;20002;-64
2022/08/30 08:02:51;;;;;;;;;;;19.30;72.00;;;;;;5060727;28;19909;-65
2022/08/30 08:05:17;;;;;;;;;;;19.30;72.00;;;;;;5064923;28;19944;-64
2022/08/30 08:07:42;;;;;;;;;;;19.30;72.10;;;;;;5065021;28;19934;-65
2022/08/30 08:10:08;;;;;;;;;;;19.40;72.00;;;;;;5065311;28;19990;-64
2022/08/30 08:12:35;;;;;;;;;;;19.40;72.00;;;;;;5065076;28;19916;-64
2022/08/30 08:15:00;;;;;;;;;;;19.40;71.80;;;;;;5065317;28;19919;-64
2022/08/30 08:17:26;;;;;;;;;;;19.40;71.80;;;;;;5065303;28;19916;-64
2022/08/30 08:19:52;;;;;;;;;;;19.50;71.90;;;;;;5065686;28;19912;-64
2022/08/30 08:22:17;;;;;;;;;;;19.50;71.90;;;;;;5064508;28;19955;-65
2022/08/30 08:24:42;;;;;;;;;;;19.50;71.90;;;;;;5065105;28;20010;-65
2022/08/30 08:27:08;;;;;;;;;;;19.50;71.80;;;;;;5065096;28;20636;-64
2022/08/30 08:29:34;;;;;;;;;;;19.60;71.80;;;;;;5065230;28;19923;-64
2022/08/30 08:31:59;;;;;;;;;;;19.60;71.80;;;;;;5064786;28;19913;-64
2022/08/30 08:34:26;;;;;;;;;;;19.60;71.60;;;;;;5064857;28;19916;-65
2022/08/30 08:36:52;;;;;;;;;;;19.70;71.60;;;;;;5064875;28;19950;-65
2022/08/30 08:39:17;;;;;;;;;;;19.70;71.50;;;;;;5064974;28;19944;-64
2022/08/30 08:41:49;;;;;;;;;;;19.70;71.50;;;;;;5061658;28;19958;-64
2022/08/30 08:44:34;;;;;;;;;;;19.80;71.50;;;;;;5068322;28;20010;-64
2022/08/30 08:47:10;;;;;;;;;;;19.80;71.50;;;;;;5067968;28;19918;-64
2022/08/30 08:49:38;;;;;;;;;;;19.80;71.30;;;;;;5068418;28;19999;-65
2022/08/30 08:54:58;;;;;;;;;;;19.90;71.10;;;;;;5068407;28;20575;-64
2022/08/30 08:57:23;;;;;;;;;;;20.00;71.10;;;;;;5066443;28;19912;-65
2022/08/30 08:59:53;;;;;;;;;;;20.00;71.10;;;;;;5068238;28;19909;-65
2022/08/30 09:02:23;;;;;;;;;;;20.00;71.00;;;;;;5062049;28;19912;-65
2022/08/30 09:04:49;;;;;;;;;;;20.10;71.00;;;;;;5068216;28;20682;-65
2022/08/30 09:07:20;;;;;;;;;;;20.10;70.90;;;;;;5068353;28;19912;-65
2022/08/30 09:09:46;;;;;;;;;;;20.10;70.90;;;;;;5068381;28;19917;-64
2022/08/30 09:12:12;;;;;;;;;;;20.20;71.10;;;;;;5067540;28;19912;-64
2022/08/30 09:14:39;;;;;;;;;;;20.20;70.90;;;;;;5068051;28;20270;-65
2022/08/30 09:17:05;;;;;;;;;;;20.20;71.00;;;;;;5067896;28;19920;-65
2022/08/30 09:19:30;;;;;;;;;;;20.30;71.20;;;;;;5067687;28;19913;-64
2022/08/30 09:21:57;;;;;;;;;;;20.30;71.10;;;;;;5049353;28;19924;-64
2022/08/30 09:24:22;;;;;;;;;;;20.30;71.00;;;;;;5067400;28;20309;-65
2022/08/30 09:26:48;;;;;;;;;;;20.40;70.90;;;;;;5067601;28;19924;-65
2022/08/30 09:29:17;;;;;;;;;;;20.40;70.80;;;;;;5067248;28;19912;-65
2022/08/30 09:31:49;;;;;;;;;;;20.50;71.00;;;;;;5049074;28;19916;-65
2022/08/30 09:34:17;;;;;;;;;;;20.50;70.60;;;;;;5060919;28;19920;-65
2022/08/30 09:36:50;;;;;;;;;;;20.60;70.60;;;;;;5067388;28;19913;-65
2022/08/30 09:39:18;;;;;;;;;;;20.70;70.50;;;;;;5067530;28;19923;-65
2022/08/30 09:41:47;;;;;;;;;;;20.70;70.30;;;;;;5060923;28;19920;-64
2022/08/30 09:44:29;;;;;;;;;;;20.80;70.30;;;;;;5061268;28;19920;-65
2022/08/30 09:46:55;;;;;;;;;;;20.90;70.30;;;;;;5067409;28;19919;-65
2022/08/30 09:49:26;;;;;;;;;;;20.90;70.30;;;;;;5067487;28;19951;-65
2022/08/30 09:51:57;;;;;;;;;;;21.00;70.20;;;;;;5066312;28;19916;-65
2022/08/30 09:54:25;;;;;;;;;;;21.00;70.10;;;;;;5067022;28;20003;-65
2022/08/30 09:56:57;;;;;;;;;;;21.00;70.10;;;;;;5067273;28;20364;-65
2022/08/30 09:59:28;;;;;;;;;;;21.00;70.00;;;;;;5067017;28;20011;-65
2022/08/30 10:02:00;;;;;;;;;;;21.00;70.20;;;;;;5065558;28;20011;-64
2022/08/30 10:04:40;;;;;;;;;;;21.10;70.10;;;;;;5064748;28;19912;-65
2022/08/30 10:07:38;;;;;;;;;;;21.10;70.00;;;;;;5066573;28;19923;-65
2022/08/30 10:10:18;;;;;;;;;;;21.20;69.90;;;;;;5021627;28;19916;-65
2022/08/30 10:12:43;;;;;;;;;;;21.30;69.90;;;;;;5066247;28;20527;-65
2022/08/30 10:15:28;;;;;;;;;;;21.30;69.70;;;;;;5048601;28;19912;-65
2022/08/30 10:18:12;;;;;;;;;;;21.40;69.90;;;;;;5066382;28;19913;-65
2022/08/30 10:20:44;;;;;;;;;;;21.40;69.70;;;;;;5066156;28;19912;-65
2022/08/30 10:23:10;;;;;;;;;;;21.50;69.70;;;;;;5066182;28;19917;-65
2022/08/30 10:25:35;;;;;;;;;;;21.60;69.70;;;;;;5066755;28;19916;-65
2022/08/30 10:28:13;;;;;;;;;;;21.60;69.40;;;;;;5066631;28;19934;-65
2022/08/30 10:30:41;;;;;;;;;;;21.70;69.20;;;;;;5065929;28;19916;-65
2022/08/30 10:33:17;;;;;;;;;;;21.70;69.40;;;;;;5059882;28;19928;-65
2022/08/30 10:35:54;;;;;;;;;;;21.80;68.80;;;;;;5062186;28;19913;-65
2022/08/30 10:38:26;;;;;;;;;;;21.90;68.70;;;;;;5065850;28;19916;-65
2022/08/30 10:41:20;;;;;;;;;;;22.00;68.40;;;;;;5062254;28;20424;-65
2022/08/30 10:43:45;;;;;;;;;;;22.00;68.40;;;;;;5065799;28;19989;-65
2022/08/30 10:46:17;;;;;;;;;;;22.10;68.30;;;;;;5066086;28;19916;-65
2022/08/30 10:48:43;;;;;;;;;;;22.20;68.40;;;;;;5066214;28;19923;-65
2022/08/30 10:51:13;;;;;;;;;;;22.20;68.40;;;;;;5065550;28;19908;-65
2022/08/30 10:53:42;;;;;;;;;;;22.30;68.40;;;;;;5065860;28;19916;-65
2022/08/30 10:56:09;;;;;;;;;;;22.30;67.90;;;;;;5063022;28;19917;-65
2022/08/30 10:58:37;;;;;;;;;;;22.40;67.80;;;;;;5065815;28;20313;-65
2022/08/30 11:01:41;;;;;;;;;;;22.50;68.00;;;;;;5065323;28;19935;-66
2022/08/30 11:04:09;;;;;;;;;;;22.60;67.90;;;;;;4983169;28;19918;-65
2022/08/30 11:06:53;;;;;;;;;;;22.70;67.90;;;;;;4983315;28;19914;-69
2022/08/30 11:09:30;;;;;;;;;;;22.70;67.80;;;;;;5031842;28;19999;-65
2022/08/30 11:12:03;;;;;;;;;;;22.80;67.50;;;;;;5065287;28;20669;-65
2022/08/30 11:14:29;;;;;;;;;;;23.00;67.80;;;;;;5066158;28;20035;-65
2022/08/30 11:16:56;;;;;;;;;;;23.00;67.50;;;;;;5066003;28;20576;-65
2022/08/30 11:19:23;;;;;;;;;;;23.10;67.60;;;;;;5065652;28;19966;-65
2022/08/30 11:21:49;;;;;;;;;;;23.20;67.60;;;;;;5065645;28;19919;-65
2022/08/30 11:24:18;;;;;;;;;;;23.30;67.50;;;;;;5065733;28;20049;-65
2022/08/30 11:26:44;;;;;;;;;;;23.30;67.10;;;;;;5047324;28;20509;-65
2022/08/30 11:29:26;;;;;;;;;;;23.30;67.20;;;;;;5065316;28;20009;-65
2022/08/30 11:31:56;;;;;;;;;;;23.40;67.20;;;;;;5065438;28;19912;-65
2022/08/30 11:34:40;;;;;;;;;;;23.40;67.30;;;;;;5065604;28;20266;-65
2022/08/30 11:37:06;;;;;;;;;;;23.50;67.30;;;;;;5065437;28;19979;-65
2022/08/30 11:39:43;;;;;;;;;;;23.50;67.20;;;;;;5065323;28;19913;-65
2022/08/30 11:42:23;;;;;;;;;;;23.60;67.10;;;;;;5064922;28;20519;-65
2022/08/30 11:44:49;;;;;;;;;;;23.60;67.70;;;;;;5046889;28;19926;-65
2022/08/30 11:47:33;;;;;;;;;;;23.60;67.00;;;;;;5065444;28;20006;-65
2022/08/30 11:50:07;;;;;;;;;;;23.70;66.90;;;;;;5064297;28;19916;-65
2022/08/30 11:52:40;;;;;;;;;;;23.80;66.60;;;;;;5064327;28;19963;-65
2022/08/30 11:55:21;;;;;;;;;;;23.90;66.30;;;;;;5064643;28;20000;-65
2022/08/30 11:57:54;;;;;;;;;;;24.00;66.40;;;;;;5057336;28;19921;-65
2022/08/30 12:00:31;;;;;;;;;;;24.10;66.30;;;;;;5056522;28;19920;-66
2022/08/30 12:02:59;;;;;;;;;;;24.20;66.10;;;;;;5060275;28;19923;-66
2022/08/30 12:05:37;;;;;;;;;;;24.30;65.90;;;;;;5065295;28;20573;-66
2022/08/30 12:08:04;;;;;;;;;;;24.40;65.50;;;;;;5065694;28;20662;-66
2022/08/30 12:10:40;;;;;;;;;;;24.50;65.50;;;;;;5062412;28;19917;-66
2022/08/30 12:13:06;;;;;;;;;;;24.50;65.40;;;;;;5063980;28;19931;-66
2022/08/30 12:15:53;;;;;;;;;;;24.70;65.00;;;;;;5068333;28;20627;-65
2022/08/30 12:18:28;;;;;;;;;;;24.70;64.90;;;;;;5048034;28;19912;-66
2022/08/30 12:20:55;;;;;;;;;;;24.80;64.80;;;;;;5068704;28;19909;-66
2022/08/30 12:23:29;;;;;;;;;;;24.80;64.80;;;;;;5068853;28;19912;-66
2022/08/30 12:26:16;;;;;;;;;;;24.90;64.80;;;;;;5068650;28;19913;-66
2022/08/30 12:28:42;;;;;;;;;;;24.90;65.00;;;;;;5069022;28;19912;-66
2022/08/30 12:31:22;;;;;;;;;;;24.90;65.10;;;;;;5068598;28;20528;-66
2022/08/30 12:33:52;;;;;;;;;;;24.90;65.10;;;;;;5061619;28;19920;-66
2022/08/30 12:36:38;;;;;;;;;;;25.00;65.10;;;;;;5068693;28;19913;-66
2022/08/30 12:39:14;;;;;;;;;;;25.10;65.30;;;;;;5068527;28;19912;-66
2022/08/30 12:41:40;;;;;;;;;;;25.10;65.10;;;;;;5068224;28;19909;-66
2022/08/30 12:44:12;;;;;;;;;;;25.10;65.00;;;;;;5068146;28;19920;-66
2022/08/30 12:46:37;;;;;;;;;;;25.20;64.90;;;;;;5068691;28;19920;-66
2022/08/30 12:49:03;;;;;;;;;;;25.20;64.90;;;;;;5068645;28;20277;-66
2022/08/30 12:51:37;;;;;;;;;;;25.20;64.80;;;;;;5067595;28;19916;-66
2022/08/30 12:54:08;;;;;;;;;;;25.30;64.70;;;;;;5063845;28;19920;-66
2022/08/30 12:56:48;;;;;;;;;;;25.30;64.70;;;;;;5068082;28;20436;-66
2022/08/30 12:59:32;;;;;;;;;;;25.30;64.60;;;;;;5068675;28;19923;-66
2022/08/30 13:02:27;;;;;;;;;;;25.40;64.50;;;;;;5065916;28;19916;-66
2022/08/30 13:04:53;;;;;;;;;;;25.50;64.40;;;;;;5054209;28;19912;-67
2022/08/30 13:07:24;;;;;;;;;;;25.50;64.50;;;;;;5068371;28;19966;-66
2022/08/30 13:09:49;;;;;;;;;;;25.60;64.30;;;;;;5068020;28;19948;-66
2022/08/30 13:12:23;;;;;;;;;;;25.60;64.20;;;;;;5067157;28;19951;-66
2022/08/30 13:14:48;;;;;;;;;;;25.60;64.00;;;;;;5067796;28;19931;-66
2022/08/30 13:17:17;;;;;;;;;;;25.60;64.10;;;;;;5067874;28;19913;-66
2022/08/30 13:19:43;;;;;;;;;;;25.70;64.20;;;;;;5067544;28;19912;-66
2022/08/30 13:22:27;;;;;;;;;;;25.80;64.10;;;;;;5067384;28;20011;-66
2022/08/30 13:24:53;;;;;;;;;;;25.80;64.00;;;;;;5067159;28;19955;-66
2022/08/30 13:27:19;;;;;;;;;;;25.80;63.70;;;;;;5067598;28;20533;-66
2022/08/30 13:29:45;;;;;;;;;;;25.90;63.90;;;;;;5067191;28;19916;-66
2022/08/30 13:32:12;;;;;;;;;;;25.90;63.70;;;;;;5064863;28;20404;-66
2022/08/30 13:34:38;;;;;;;;;;;26.00;63.70;;;;;;5064143;28;20062;-66
2022/08/30 13:37:04;;;;;;;;;;;26.00;63.40;;;;;;5067109;28;20683;-67
2022/08/30 13:39:30;;;;;;;;;;;26.00;63.30;;;;;;5066734;28;20605;-66
2022/08/30 13:41:55;;;;;;;;;;;26.10;63.50;;;;;;5059461;28;19960;-67
2022/08/30 13:44:21;;;;;;;;;;;26.10;63.30;;;;;;5062248;28;19920;-66
2022/08/30 13:46:49;;;;;;;;;;;26.20;63.50;;;;;;5066807;28;20397;-66
2022/08/30 13:49:17;;;;;;;;;;;26.20;63.20;;;;;;5067140;28;19982;-66
2022/08/30 13:51:42;;;;;;;;;;;26.20;63.10;;;;;;5066305;28;20136;-66
2022/08/30 13:54:08;;;;;;;;;;;26.30;63.00;;;;;;5067180;28;20006;-66
2022/08/30 13:56:33;;;;;;;;;;;26.40;63.10;;;;;;5066967;28;19985;-66
2022/08/30 13:58:59;;;;;;;;;;;26.40;63.00;;;;;;5067104;28;19913;-66
2022/08/30 14:01:25;;;;;;;;;;;26.50;62.80;;;;;;5066617;28;19991;-66
2022/08/30 14:03:50;;;;;;;;;;;26.50;62.80;;;;;;5059783;28;20053;-66
2022/08/30 14:06:16;;;;;;;;;;;26.50;62.80;;;;;;5066805;28;19924;-67
2022/08/30 14:08:41;;;;;;;;;;;26.50;62.80;;;;;;5065268;28;19948;-66
2022/08/30 14:11:08;;;;;;;;;;;26.60;62.70;;;;;;5065182;28;20473;-66
2022/08/30 14:13:33;;;;;;;;;;;26.70;62.50;;;;;;5065478;28;19920;-66
2022/08/30 14:16:00;;;;;;;;;;;26.70;62.50;;;;;;5066327;28;19974;-66
2022/08/30 14:18:26;;;;;;;;;;;26.70;62.50;;;;;;5066579;28;20387;-66
2022/08/30 14:20:52;;;;;;;;;;;26.70;62.60;;;;;;5065955;28;19917;-66
2022/08/30 14:23:17;;;;;;;;;;;26.70;62.60;;;;;;5066444;28;20647;-66
2022/08/30 14:25:43;;;;;;;;;;;26.70;62.70;;;;;;5065327;28;19960;-66